sensor_id;sensor_type;location;lat;lon;timestamp;P1;durP1;ratioP1;P2;durP2;ratioP2
38783;SDS011;24531;45.502;12.238;2024-03-17T00:05:32;34.38;;;24.58;;
38783;SDS011;24531;45.502;12.238;2024-03-17T00:11:22;34.58;;;23.92;;
38783;SDS011;24531;45.502;12.238;2024-03-17T00:14:36;28.65;;;21.77;;
38783;SDS011;24531;45.502;12.238;2024-03-17T00:22:49;30.88;;;24.83;;
38783;SDS011;24531;45.502;12.238;2024-03-17T00:25:57;30.27;;;23.63;;
38783;SDS011;24531;45.502;12.238;2024-03-17T00:28:32;31.63;;;23.90;;
38783;SDS011;24531;45.502;12.238;2024-03-17T00:31:07;32.38;;;24.27;;
38783;SDS011;24531;45.502;12.238;2024-03-17T00:38:06;32.60;;;23.98;;
38783;SDS011;24531;45.502;12.238;2024-03-17T00:40:41;35.50;;;24.92;;
38783;SDS011;24531;45.502;12.238;2024-03-17T00:43:07;32.85;;;24.08;;
38783;SDS011;24531;45.502;12.238;2024-03-17T00:45:32;30.73;;;24.35;;
38783;SDS011;24531;45.502;12.238;2024-03-17T00:47:58;37.97;;;24.60;;
38783;SDS011;24531;45.502;12.238;2024-03-17T00:50:24;35.15;;;25.50;;
38783;SDS011;24531;45.502;12.238;2024-03-17T00:52:49;36.30;;;25.48;;
38783;SDS011;24531;45.502;12.238;2024-03-17T00:55:15;39.78;;;24.63;;
38783;SDS011;24531;45.502;12.238;2024-03-17T00:57:41;36.50;;;25.05;;
38783;SDS011;24531;45.502;12.238;2024-03-17T01:00:07;33.65;;;27.08;;
38783;SDS011;24531;45.502;12.238;2024-03-17T01:02:40;34.70;;;27.13;;
38783;SDS011;24531;45.502;12.238;2024-03-17T01:05:07;37.45;;;25.63;;
38783;SDS011;24531;45.502;12.238;2024-03-17T01:07:33;32.35;;;25.50;;
38783;SDS011;24531;45.502;12.238;2024-03-17T01:09:59;35.97;;;26.13;;
38783;SDS011;24531;45.502;12.238;2024-03-17T01:12:25;36.15;;;26.10;;
38783;SDS011;24531;45.502;12.238;2024-03-17T01:14:51;38.08;;;26.67;;
38783;SDS011;24531;45.502;12.238;2024-03-17T01:17:16;40.03;;;27.73;;
38783;SDS011;24531;45.502;12.238;2024-03-17T01:19:44;37.63;;;28.25;;
38783;SDS011;24531;45.502;12.238;2024-03-17T01:22:10;34.92;;;27.33;;
38783;SDS011;24531;45.502;12.238;2024-03-17T01:24:36;39.78;;;26.58;;
38783;SDS011;24531;45.502;12.238;2024-03-17T01:27:04;36.95;;;26.58;;
38783;SDS011;24531;45.502;12.238;2024-03-17T01:29:31;39.13;;;27.33;;
38783;SDS011;24531;45.502;12.238;2024-03-17T01:31:57;36.00;;;27.20;;
38783;SDS011;24531;45.502;12.238;2024-03-17T01:34:22;36.20;;;27.95;;
38783;SDS011;24531;45.502;12.238;2024-03-17T01:36:48;38.38;;;27.92;;
38783;SDS011;24531;45.502;12.238;2024-03-17T01:39:15;38.75;;;27.58;;
38783;SDS011;24531;45.502;12.238;2024-03-17T01:41:43;35.47;;;28.10;;
38783;SDS011;24531;45.502;12.238;2024-03-17T01:44:31;32.40;;;26.33;;
38783;SDS011;24531;45.502;12.238;2024-03-17T01:46:56;35.17;;;27.58;;
38783;SDS011;24531;45.502;12.238;2024-03-17T01:49:22;38.15;;;28.17;;
38783;SDS011;24531;45.502;12.238;2024-03-17T01:51:49;37.00;;;28.17;;
38783;SDS011;24531;45.502;12.238;2024-03-17T01:54:16;40.78;;;30.02;;
38783;SDS011;24531;45.502;12.238;2024-03-17T01:56:42;40.78;;;30.58;;
38783;SDS011;24531;45.502;12.238;2024-03-17T01:59:09;41.95;;;30.98;;
38783;SDS011;24531;45.502;12.238;2024-03-17T02:01:35;39.10;;;30.52;;
38783;SDS011;24531;45.502;12.238;2024-03-17T02:04:02;41.00;;;31.35;;
38783;SDS011;24531;45.502;12.238;2024-03-17T02:06:28;38.75;;;29.33;;
38783;SDS011;24531;45.502;12.238;2024-03-17T02:08:54;37.45;;;29.50;;
38783;SDS011;24531;45.502;12.238;2024-03-17T02:11:23;42.05;;;30.20;;
38783;SDS011;24531;45.502;12.238;2024-03-17T02:13:54;37.88;;;31.92;;
38783;SDS011;24531;45.502;12.238;2024-03-17T02:16:20;40.22;;;31.23;;
38783;SDS011;24531;45.502;12.238;2024-03-17T02:18:46;44.72;;;31.35;;
38783;SDS011;24531;45.502;12.238;2024-03-17T02:21:12;38.70;;;30.77;;
38783;SDS011;24531;45.502;12.238;2024-03-17T02:23:43;37.75;;;29.80;;
38783;SDS011;24531;45.502;12.238;2024-03-17T02:26:10;45.20;;;31.50;;
38783;SDS011;24531;45.502;12.238;2024-03-17T02:28:42;36.55;;;30.08;;
38783;SDS011;24531;45.502;12.238;2024-03-17T02:33:36;35.63;;;26.70;;
38783;SDS011;24531;45.502;12.238;2024-03-17T02:36:02;38.03;;;30.30;;
38783;SDS011;24531;45.502;12.238;2024-03-17T02:38:35;40.63;;;30.83;;
38783;SDS011;24531;45.502;12.238;2024-03-17T02:41:37;41.47;;;30.67;;
38783;SDS011;24531;45.502;12.238;2024-03-17T02:44:02;44.53;;;32.13;;
38783;SDS011;24531;45.502;12.238;2024-03-17T02:46:28;39.65;;;31.65;;
38783;SDS011;24531;45.502;12.238;2024-03-17T02:48:54;41.42;;;32.08;;
38783;SDS011;24531;45.502;12.238;2024-03-17T02:51:21;45.75;;;33.53;;
38783;SDS011;24531;45.502;12.238;2024-03-17T02:53:47;40.45;;;31.67;;
38783;SDS011;24531;45.502;12.238;2024-03-17T02:56:14;44.97;;;32.85;;
38783;SDS011;24531;45.502;12.238;2024-03-17T02:58:44;42.40;;;33.33;;
38783;SDS011;24531;45.502;12.238;2024-03-17T03:01:14;42.97;;;33.30;;
38783;SDS011;24531;45.502;12.238;2024-03-17T03:03:40;41.90;;;33.20;;
38783;SDS011;24531;45.502;12.238;2024-03-17T03:06:14;39.33;;;32.00;;
38783;SDS011;24531;45.502;12.238;2024-03-17T03:16:41;39.83;;;31.58;;
38783;SDS011;24531;45.502;12.238;2024-03-17T03:25:04;45.58;;;32.15;;
38783;SDS011;24531;45.502;12.238;2024-03-17T03:27:44;42.72;;;32.60;;
38783;SDS011;24531;45.502;12.238;2024-03-17T03:30:10;47.33;;;33.35;;
38783;SDS011;24531;45.502;12.238;2024-03-17T03:32:36;39.72;;;31.65;;
38783;SDS011;24531;45.502;12.238;2024-03-17T03:38:22;44.22;;;32.13;;
38783;SDS011;24531;45.502;12.238;2024-03-17T03:40:51;45.00;;;31.98;;
38783;SDS011;24531;45.502;12.238;2024-03-17T03:43:26;39.35;;;32.40;;
38783;SDS011;24531;45.502;12.238;2024-03-17T03:46:37;43.00;;;30.38;;
38783;SDS011;24531;45.502;12.238;2024-03-17T03:49:09;44.13;;;32.72;;
38783;SDS011;24531;45.502;12.238;2024-03-17T03:51:41;43.90;;;31.38;;
38783;SDS011;24531;45.502;12.238;2024-03-17T03:57:27;42.60;;;31.40;;
38783;SDS011;24531;45.502;12.238;2024-03-17T04:00:06;40.90;;;30.42;;
38783;SDS011;24531;45.502;12.238;2024-03-17T04:02:52;40.80;;;31.75;;
38783;SDS011;24531;45.502;12.238;2024-03-17T04:05:35;43.80;;;31.00;;
38783;SDS011;24531;45.502;12.238;2024-03-17T04:08:02;41.30;;;32.17;;
38783;SDS011;24531;45.502;12.238;2024-03-17T04:10:36;43.90;;;33.42;;
38783;SDS011;24531;45.502;12.238;2024-03-17T04:13:52;42.92;;;30.80;;
38783;SDS011;24531;45.502;12.238;2024-03-17T04:19:07;45.15;;;35.17;;
38783;SDS011;24531;45.502;12.238;2024-03-17T04:22:16;48.53;;;36.00;;
38783;SDS011;24531;45.502;12.238;2024-03-17T04:25:51;44.15;;;32.60;;
38783;SDS011;24531;45.502;12.238;2024-03-17T04:28:18;45.42;;;33.20;;
38783;SDS011;24531;45.502;12.238;2024-03-17T04:30:44;44.58;;;35.33;;
38783;SDS011;24531;45.502;12.238;2024-03-17T04:33:10;50.15;;;34.92;;
38783;SDS011;24531;45.502;12.238;2024-03-17T04:35:40;45.28;;;35.75;;
38783;SDS011;24531;45.502;12.238;2024-03-17T04:38:06;45.80;;;34.25;;
38783;SDS011;24531;45.502;12.238;2024-03-17T04:40:32;46.67;;;34.60;;
38783;SDS011;24531;45.502;12.238;2024-03-17T04:42:58;44.30;;;35.20;;
38783;SDS011;24531;45.502;12.238;2024-03-17T04:45:24;46.15;;;34.58;;
38783;SDS011;24531;45.502;12.238;2024-03-17T04:47:51;47.15;;;34.38;;
38783;SDS011;24531;45.502;12.238;2024-03-17T04:50:17;45.22;;;33.85;;
38783;SDS011;24531;45.502;12.238;2024-03-17T04:52:45;43.05;;;31.85;;
38783;SDS011;24531;45.502;12.238;2024-03-17T04:55:12;46.22;;;34.00;;
38783;SDS011;24531;45.502;12.238;2024-03-17T04:57:40;42.20;;;31.92;;
38783;SDS011;24531;45.502;12.238;2024-03-17T05:00:06;46.85;;;33.90;;
38783;SDS011;24531;45.502;12.238;2024-03-17T05:02:32;44.33;;;33.25;;
38783;SDS011;24531;45.502;12.238;2024-03-17T05:04:58;44.83;;;33.90;;
38783;SDS011;24531;45.502;12.238;2024-03-17T05:07:24;44.40;;;33.22;;
38783;SDS011;24531;45.502;12.238;2024-03-17T05:09:49;43.90;;;34.42;;
38783;SDS011;24531;45.502;12.238;2024-03-17T05:12:15;48.15;;;36.40;;
38783;SDS011;24531;45.502;12.238;2024-03-17T05:14:43;49.40;;;35.28;;
38783;SDS011;24531;45.502;12.238;2024-03-17T05:17:08;52.50;;;35.95;;
38783;SDS011;24531;45.502;12.238;2024-03-17T05:19:34;53.20;;;38.50;;
38783;SDS011;24531;45.502;12.238;2024-03-17T05:21:59;62.72;;;42.78;;
38783;SDS011;24531;45.502;12.238;2024-03-17T05:24:25;58.67;;;43.90;;
38783;SDS011;24531;45.502;12.238;2024-03-17T05:26:51;64.55;;;46.03;;
38783;SDS011;24531;45.502;12.238;2024-03-17T05:29:17;58.50;;;44.92;;
38783;SDS011;24531;45.502;12.238;2024-03-17T05:31:43;66.18;;;46.53;;
38783;SDS011;24531;45.502;12.238;2024-03-17T05:34:09;58.13;;;44.78;;
38783;SDS011;24531;45.502;12.238;2024-03-17T05:36:35;60.22;;;43.25;;
38783;SDS011;24531;45.502;12.238;2024-03-17T05:39:01;60.55;;;43.13;;
38783;SDS011;24531;45.502;12.238;2024-03-17T05:41:27;54.65;;;42.10;;
38783;SDS011;24531;45.502;12.238;2024-03-17T05:43:53;59.25;;;40.88;;
38783;SDS011;24531;45.502;12.238;2024-03-17T05:46:23;56.03;;;40.53;;
38783;SDS011;24531;45.502;12.238;2024-03-17T05:48:53;55.22;;;39.75;;
38783;SDS011;24531;45.502;12.238;2024-03-17T05:51:19;57.47;;;40.70;;
38783;SDS011;24531;45.502;12.238;2024-03-17T05:53:45;49.58;;;37.10;;
38783;SDS011;24531;45.502;12.238;2024-03-17T05:56:11;46.95;;;36.17;;
38783;SDS011;24531;45.502;12.238;2024-03-17T05:58:37;40.28;;;32.75;;
38783;SDS011;24531;45.502;12.238;2024-03-17T06:01:04;44.90;;;33.17;;
38783;SDS011;24531;45.502;12.238;2024-03-17T06:03:35;44.22;;;33.75;;
38783;SDS011;24531;45.502;12.238;2024-03-17T06:06:01;40.30;;;32.30;;
38783;SDS011;24531;45.502;12.238;2024-03-17T06:08:28;42.80;;;31.02;;
38783;SDS011;24531;45.502;12.238;2024-03-17T06:10:54;37.83;;;31.10;;
38783;SDS011;24531;45.502;12.238;2024-03-17T06:13:21;39.88;;;31.50;;
38783;SDS011;24531;45.502;12.238;2024-03-17T06:15:48;35.95;;;29.17;;
38783;SDS011;24531;45.502;12.238;2024-03-17T06:18:13;41.42;;;31.95;;
38783;SDS011;24531;45.502;12.238;2024-03-17T06:20:42;38.88;;;31.27;;
38783;SDS011;24531;45.502;12.238;2024-03-17T06:23:11;37.10;;;29.95;;
38783;SDS011;24531;45.502;12.238;2024-03-17T06:25:47;39.03;;;31.27;;
38783;SDS011;24531;45.502;12.238;2024-03-17T06:28:17;81.93;;;35.60;;
38783;SDS011;24531;45.502;12.238;2024-03-17T06:30:43;62.75;;;36.60;;
38783;SDS011;24531;45.502;12.238;2024-03-17T06:33:13;116.28;;;37.22;;
38783;SDS011;24531;45.502;12.238;2024-03-17T06:35:41;120.63;;;36.95;;
38783;SDS011;24531;45.502;12.238;2024-03-17T06:38:06;68.80;;;35.78;;
38783;SDS011;24531;45.502;12.238;2024-03-17T06:40:35;139.48;;;35.40;;
38783;SDS011;24531;45.502;12.238;2024-03-17T06:43:01;84.22;;;33.75;;
38783;SDS011;24531;45.502;12.238;2024-03-17T06:45:27;52.17;;;34.40;;
38783;SDS011;24531;45.502;12.238;2024-03-17T07:57:11;37.92;;;26.42;;
38783;SDS011;24531;45.502;12.238;2024-03-17T07:59:37;35.25;;;26.45;;
38783;SDS011;24531;45.502;12.238;2024-03-17T08:02:03;35.63;;;26.27;;
38783;SDS011;24531;45.502;12.238;2024-03-17T08:04:28;37.15;;;27.95;;
38783;SDS011;24531;45.502;12.238;2024-03-17T08:06:56;33.65;;;27.15;;
38783;SDS011;24531;45.502;12.238;2024-03-17T08:09:21;35.10;;;26.48;;
38783;SDS011;24531;45.502;12.238;2024-03-17T08:11:47;34.25;;;26.38;;
38783;SDS011;24531;45.502;12.238;2024-03-17T08:14:13;35.50;;;27.13;;
38783;SDS011;24531;45.502;12.238;2024-03-17T08:16:41;32.35;;;25.13;;
38783;SDS011;24531;45.502;12.238;2024-03-17T08:19:06;30.25;;;24.42;;
38783;SDS011;24531;45.502;12.238;2024-03-17T08:21:32;30.15;;;23.98;;
38783;SDS011;24531;45.502;12.238;2024-03-17T08:23:58;33.38;;;26.52;;
38783;SDS011;24531;45.502;12.238;2024-03-17T08:26:23;36.20;;;26.17;;
38783;SDS011;24531;45.502;12.238;2024-03-17T08:28:49;34.17;;;26.13;;
38783;SDS011;24531;45.502;12.238;2024-03-17T08:31:15;31.88;;;26.10;;
38783;SDS011;24531;45.502;12.238;2024-03-17T08:33:40;28.52;;;24.08;;
38783;SDS011;24531;45.502;12.238;2024-03-17T08:36:06;28.90;;;22.92;;
38783;SDS011;24531;45.502;12.238;2024-03-17T08:38:33;30.48;;;22.83;;
38783;SDS011;24531;45.502;12.238;2024-03-17T08:41:03;28.75;;;21.75;;
38783;SDS011;24531;45.502;12.238;2024-03-17T08:43:32;26.08;;;21.02;;
38783;SDS011;24531;45.502;12.238;2024-03-17T08:45:59;27.50;;;21.25;;
38783;SDS011;24531;45.502;12.238;2024-03-17T08:48:30;23.80;;;19.98;;
38783;SDS011;24531;45.502;12.238;2024-03-17T08:50:57;26.15;;;20.80;;
38783;SDS011;24531;45.502;12.238;2024-03-17T08:53:23;23.60;;;19.20;;
38783;SDS011;24531;45.502;12.238;2024-03-17T08:55:50;20.60;;;17.15;;
38783;SDS011;24531;45.502;12.238;2024-03-17T08:58:16;21.85;;;17.73;;
38783;SDS011;24531;45.502;12.238;2024-03-17T09:00:42;19.50;;;16.33;;
38783;SDS011;24531;45.502;12.238;2024-03-17T09:03:08;18.30;;;15.80;;
38783;SDS011;24531;45.502;12.238;2024-03-17T09:05:47;17.40;;;14.75;;
38783;SDS011;24531;45.502;12.238;2024-03-17T09:08:17;16.67;;;13.23;;
38783;SDS011;24531;45.502;12.238;2024-03-17T09:10:47;14.32;;;12.68;;
38783;SDS011;24531;45.502;12.238;2024-03-17T11:13:31;21.23;;;14.80;;
38783;SDS011;24531;45.502;12.238;2024-03-17T11:19:05;23.48;;;16.15;;
38783;SDS011;24531;45.502;12.238;2024-03-17T11:21:59;18.70;;;14.88;;
38783;SDS011;24531;45.502;12.238;2024-03-17T11:28:11;24.77;;;16.77;;
38783;SDS011;24531;45.502;12.238;2024-03-17T11:31:22;22.15;;;15.52;;
38783;SDS011;24531;45.502;12.238;2024-03-17T11:34:00;20.83;;;15.52;;
38783;SDS011;24531;45.502;12.238;2024-03-17T11:36:32;19.95;;;15.30;;
38783;SDS011;24531;45.502;12.238;2024-03-17T11:41:52;21.75;;;15.65;;
38783;SDS011;24531;45.502;12.238;2024-03-17T11:46:51;25.00;;;16.50;;
38783;SDS011;24531;45.502;12.238;2024-03-17T11:51:56;25.05;;;16.35;;
38783;SDS011;24531;45.502;12.238;2024-03-17T11:54:31;20.88;;;16.10;;
38783;SDS011;24531;45.502;12.238;2024-03-17T11:57:01;26.50;;;16.52;;
38783;SDS011;24531;45.502;12.238;2024-03-17T11:59:28;18.58;;;14.43;;
38783;SDS011;24531;45.502;12.238;2024-03-17T12:01:55;26.85;;;17.42;;
38783;SDS011;24531;45.502;12.238;2024-03-17T12:04:21;21.13;;;15.45;;
38783;SDS011;24531;45.502;12.238;2024-03-17T12:12:32;15.02;;;11.82;;
38783;SDS011;24531;45.502;12.238;2024-03-17T12:14:35;14.35;;;10.27;;
38783;SDS011;24531;45.502;12.238;2024-03-17T12:19:32;13.27;;;9.82;;
38783;SDS011;24531;45.502;12.238;2024-03-17T12:21:59;14.18;;;11.30;;
38783;SDS011;24531;45.502;12.238;2024-03-17T12:24:29;13.15;;;10.27;;
38783;SDS011;24531;45.502;12.238;2024-03-17T12:26:56;13.30;;;10.88;;
38783;SDS011;24531;45.502;12.238;2024-03-17T12:31:56;12.52;;;10.18;;
38783;SDS011;24531;45.502;12.238;2024-03-17T12:34:24;16.35;;;10.23;;
38783;SDS011;24531;45.502;12.238;2024-03-17T12:36:54;16.60;;;13.98;;
38783;SDS011;24531;45.502;12.238;2024-03-17T12:39:21;20.55;;;14.20;;
38783;SDS011;24531;45.502;12.238;2024-03-17T12:44:38;15.07;;;12.13;;
38783;SDS011;24531;45.502;12.238;2024-03-17T12:47:18;16.92;;;12.57;;
38783;SDS011;24531;45.502;12.238;2024-03-17T12:49:45;12.88;;;10.48;;
38783;SDS011;24531;45.502;12.238;2024-03-17T12:52:19;14.85;;;10.52;;
38783;SDS011;24531;45.502;12.238;2024-03-17T12:54:59;9.77;;;8.38;;
38783;SDS011;24531;45.502;12.238;2024-03-17T12:57:44;13.85;;;9.65;;
38783;SDS011;24531;45.502;12.238;2024-03-17T13:00:29;12.40;;;9.13;;
38783;SDS011;24531;45.502;12.238;2024-03-17T13:02:58;15.15;;;10.13;;
38783;SDS011;24531;45.502;12.238;2024-03-17T13:05:37;11.77;;;9.18;;
38783;SDS011;24531;45.502;12.238;2024-03-17T13:08:02;12.80;;;11.05;;
38783;SDS011;24531;45.502;12.238;2024-03-17T13:10:29;16.25;;;10.10;;
38783;SDS011;24531;45.502;12.238;2024-03-17T13:13:01;14.02;;;10.35;;
38783;SDS011;24531;45.502;12.238;2024-03-17T13:15:32;15.43;;;9.90;;
38783;SDS011;24531;45.502;12.238;2024-03-17T13:18:00;11.75;;;10.07;;
38783;SDS011;24531;45.502;12.238;2024-03-17T13:20:27;10.57;;;8.38;;
38783;SDS011;24531;45.502;12.238;2024-03-17T13:22:53;9.25;;;7.43;;
38783;SDS011;24531;45.502;12.238;2024-03-17T13:25:20;11.02;;;8.07;;
38783;SDS011;24531;45.502;12.238;2024-03-17T13:27:49;12.07;;;8.60;;
38783;SDS011;24531;45.502;12.238;2024-03-17T13:30:15;11.95;;;8.93;;
38783;SDS011;24531;45.502;12.238;2024-03-17T13:32:43;13.52;;;8.38;;
38783;SDS011;24531;45.502;12.238;2024-03-17T13:35:17;11.93;;;9.00;;
38783;SDS011;24531;45.502;12.238;2024-03-17T13:37:48;19.42;;;12.27;;
38783;SDS011;24531;45.502;12.238;2024-03-17T13:40:15;17.83;;;10.50;;
38783;SDS011;24531;45.502;12.238;2024-03-17T13:42:44;13.13;;;9.52;;
38783;SDS011;24531;45.502;12.238;2024-03-17T13:45:12;11.98;;;9.63;;
38783;SDS011;24531;45.502;12.238;2024-03-17T13:47:42;15.65;;;10.10;;
38783;SDS011;24531;45.502;12.238;2024-03-17T13:50:12;15.40;;;10.18;;
38783;SDS011;24531;45.502;12.238;2024-03-17T13:52:41;14.98;;;10.00;;
38783;SDS011;24531;45.502;12.238;2024-03-17T13:55:14;12.48;;;10.88;;
38783;SDS011;24531;45.502;12.238;2024-03-17T13:57:43;13.23;;;8.63;;
38783;SDS011;24531;45.502;12.238;2024-03-17T14:00:09;13.02;;;8.73;;
38783;SDS011;24531;45.502;12.238;2024-03-17T14:02:40;12.27;;;9.05;;
38783;SDS011;24531;45.502;12.238;2024-03-17T14:05:13;12.77;;;8.70;;
38783;SDS011;24531;45.502;12.238;2024-03-17T14:07:44;12.27;;;10.23;;
38783;SDS011;24531;45.502;12.238;2024-03-17T14:10:11;18.20;;;11.23;;
38783;SDS011;24531;45.502;12.238;2024-03-17T14:12:39;13.57;;;10.23;;
38783;SDS011;24531;45.502;12.238;2024-03-17T14:15:05;15.25;;;8.80;;
38783;SDS011;24531;45.502;12.238;2024-03-17T14:17:45;13.52;;;9.95;;
38783;SDS011;24531;45.502;12.238;2024-03-17T14:20:12;11.13;;;9.50;;
38783;SDS011;24531;45.502;12.238;2024-03-17T14:22:42;14.75;;;9.13;;
38783;SDS011;24531;45.502;12.238;2024-03-17T14:25:18;11.27;;;9.27;;
38783;SDS011;24531;45.502;12.238;2024-03-17T14:27:44;12.13;;;9.45;;
38783;SDS011;24531;45.502;12.238;2024-03-17T14:30:10;10.38;;;8.80;;
38783;SDS011;24531;45.502;12.238;2024-03-17T14:32:44;11.32;;;8.15;;
38783;SDS011;24531;45.502;12.238;2024-03-17T14:35:13;13.10;;;8.15;;
38783;SDS011;24531;45.502;12.238;2024-03-17T14:37:44;10.18;;;7.97;;
38783;SDS011;24531;45.502;12.238;2024-03-17T14:40:13;15.25;;;9.93;;
38783;SDS011;24531;45.502;12.238;2024-03-17T14:42:45;14.65;;;10.70;;
38783;SDS011;24531;45.502;12.238;2024-03-17T14:45:11;16.00;;;11.05;;
38783;SDS011;24531;45.502;12.238;2024-03-17T14:47:36;15.07;;;9.55;;
38783;SDS011;24531;45.502;12.238;2024-03-17T14:50:02;11.55;;;8.93;;
38783;SDS011;24531;45.502;12.238;2024-03-17T14:52:28;11.73;;;8.52;;
38783;SDS011;24531;45.502;12.238;2024-03-17T14:54:54;13.13;;;8.60;;
38783;SDS011;24531;45.502;12.238;2024-03-17T14:57:21;12.50;;;8.15;;
38783;SDS011;24531;45.502;12.238;2024-03-17T14:59:47;14.60;;;8.15;;
38783;SDS011;24531;45.502;12.238;2024-03-17T15:02:14;13.23;;;10.15;;
38783;SDS011;24531;45.502;12.238;2024-03-17T15:04:40;12.82;;;9.43;;
38783;SDS011;24531;45.502;12.238;2024-03-17T15:07:06;13.18;;;8.98;;
38783;SDS011;24531;45.502;12.238;2024-03-17T15:09:33;13.05;;;8.57;;
38783;SDS011;24531;45.502;12.238;2024-03-17T15:11:58;9.70;;;8.57;;
38783;SDS011;24531;45.502;12.238;2024-03-17T15:14:26;12.05;;;9.07;;
38783;SDS011;24531;45.502;12.238;2024-03-17T15:16:52;14.63;;;10.68;;
38783;SDS011;24531;45.502;12.238;2024-03-17T15:19:18;14.45;;;10.65;;
38783;SDS011;24531;45.502;12.238;2024-03-17T15:21:43;12.38;;;9.63;;
38783;SDS011;24531;45.502;12.238;2024-03-17T15:24:10;58.42;;;41.60;;
38783;SDS011;24531;45.502;12.238;2024-03-17T15:26:36;35.20;;;22.92;;
38783;SDS011;24531;45.502;12.238;2024-03-17T15:29:01;22.67;;;14.50;;
38783;SDS011;24531;45.502;12.238;2024-03-17T15:31:29;16.20;;;11.13;;
38783;SDS011;24531;45.502;12.238;2024-03-17T15:33:57;13.63;;;9.55;;
38783;SDS011;24531;45.502;12.238;2024-03-17T15:36:23;12.65;;;7.88;;
38783;SDS011;24531;45.502;12.238;2024-03-17T15:38:49;11.23;;;8.55;;
38783;SDS011;24531;45.502;12.238;2024-03-17T15:41:15;13.38;;;8.85;;
38783;SDS011;24531;45.502;12.238;2024-03-17T15:43:41;14.07;;;10.40;;
38783;SDS011;24531;45.502;12.238;2024-03-17T15:46:08;11.07;;;8.65;;
38783;SDS011;24531;45.502;12.238;2024-03-17T15:48:38;13.50;;;9.30;;
38783;SDS011;24531;45.502;12.238;2024-03-17T15:51:03;12.70;;;9.73;;
38783;SDS011;24531;45.502;12.238;2024-03-17T15:53:29;10.27;;;9.02;;
38783;SDS011;24531;45.502;12.238;2024-03-17T15:58:25;13.35;;;9.48;;
38783;SDS011;24531;45.502;12.238;2024-03-17T16:00:52;47.10;;;32.65;;
38783;SDS011;24531;45.502;12.238;2024-03-17T16:03:18;31.42;;;18.77;;
38783;SDS011;24531;45.502;12.238;2024-03-17T16:05:47;18.13;;;13.02;;
38783;SDS011;24531;45.502;12.238;2024-03-17T16:08:14;14.98;;;10.82;;
38783;SDS011;24531;45.502;12.238;2024-03-17T16:10:41;13.38;;;9.43;;
38783;SDS011;24531;45.502;12.238;2024-03-17T16:13:12;12.65;;;9.27;;
38783;SDS011;24531;45.502;12.238;2024-03-17T16:15:39;16.05;;;8.95;;
38783;SDS011;24531;45.502;12.238;2024-03-17T16:18:06;11.57;;;8.70;;
38783;SDS011;24531;45.502;12.238;2024-03-17T16:23:13;13.43;;;9.52;;
38783;SDS011;24531;45.502;12.238;2024-03-17T16:25:40;17.65;;;9.25;;
38783;SDS011;24531;45.502;12.238;2024-03-17T16:28:06;11.18;;;9.07;;
38783;SDS011;24531;45.502;12.238;2024-03-17T16:30:34;15.77;;;8.43;;
38783;SDS011;24531;45.502;12.238;2024-03-17T16:33:00;15.00;;;8.68;;
38783;SDS011;24531;45.502;12.238;2024-03-17T16:35:26;9.50;;;7.57;;
38783;SDS011;24531;45.502;12.238;2024-03-17T16:37:52;11.02;;;8.00;;
38783;SDS011;24531;45.502;12.238;2024-03-17T16:40:17;10.40;;;7.25;;
38783;SDS011;24531;45.502;12.238;2024-03-17T16:42:43;11.35;;;8.68;;
38783;SDS011;24531;45.502;12.238;2024-03-17T16:45:09;10.65;;;8.30;;
38783;SDS011;24531;45.502;12.238;2024-03-17T16:47:35;16.23;;;9.50;;
38783;SDS011;24531;45.502;12.238;2024-03-17T16:50:01;12.45;;;8.27;;
38783;SDS011;24531;45.502;12.238;2024-03-17T16:52:33;10.98;;;8.30;;
38783;SDS011;24531;45.502;12.238;2024-03-17T16:55:00;15.55;;;9.07;;
38783;SDS011;24531;45.502;12.238;2024-03-17T16:57:30;12.77;;;9.20;;
38783;SDS011;24531;45.502;12.238;2024-03-17T16:59:59;9.48;;;7.72;;
38783;SDS011;24531;45.502;12.238;2024-03-17T17:02:41;8.52;;;7.10;;
38783;SDS011;24531;45.502;12.238;2024-03-17T17:05:09;10.82;;;6.07;;
38783;SDS011;24531;45.502;12.238;2024-03-17T17:07:38;12.05;;;7.45;;
38783;SDS011;24531;45.502;12.238;2024-03-17T17:10:10;8.00;;;6.70;;
38783;SDS011;24531;45.502;12.238;2024-03-17T17:12:38;11.13;;;6.72;;
38783;SDS011;24531;45.502;12.238;2024-03-17T17:15:11;9.75;;;5.75;;
38783;SDS011;24531;45.502;12.238;2024-03-17T17:17:39;7.95;;;6.28;;
38783;SDS011;24531;45.502;12.238;2024-03-17T17:20:06;8.57;;;5.28;;
38783;SDS011;24531;45.502;12.238;2024-03-17T17:22:32;8.95;;;5.30;;
38783;SDS011;24531;45.502;12.238;2024-03-17T17:24:58;5.97;;;5.07;;
38783;SDS011;24531;45.502;12.238;2024-03-17T17:27:23;6.93;;;5.30;;
38783;SDS011;24531;45.502;12.238;2024-03-17T17:29:49;8.25;;;4.75;;
38783;SDS011;24531;45.502;12.238;2024-03-17T17:32:14;9.93;;;5.13;;
38783;SDS011;24531;45.502;12.238;2024-03-17T17:34:40;6.55;;;5.40;;
38783;SDS011;24531;45.502;12.238;2024-03-17T17:37:06;10.30;;;4.95;;
38783;SDS011;24531;45.502;12.238;2024-03-17T17:39:34;6.72;;;4.90;;
38783;SDS011;24531;45.502;12.238;2024-03-17T17:42:00;7.70;;;5.68;;
38783;SDS011;24531;45.502;12.238;2024-03-17T17:44:30;7.35;;;5.78;;
38783;SDS011;24531;45.502;12.238;2024-03-17T17:46:56;7.20;;;5.18;;
38783;SDS011;24531;45.502;12.238;2024-03-17T17:49:23;7.65;;;5.05;;
38783;SDS011;24531;45.502;12.238;2024-03-17T17:51:51;8.00;;;5.18;;
38783;SDS011;24531;45.502;12.238;2024-03-17T17:54:17;6.85;;;5.43;;
38783;SDS011;24531;45.502;12.238;2024-03-17T17:56:43;9.57;;;6.38;;
38783;SDS011;24531;45.502;12.238;2024-03-17T17:59:09;5.95;;;5.22;;
38783;SDS011;24531;45.502;12.238;2024-03-17T18:01:35;6.90;;;5.78;;
38783;SDS011;24531;45.502;12.238;2024-03-17T18:04:00;6.93;;;6.00;;
38783;SDS011;24531;45.502;12.238;2024-03-17T18:06:26;9.10;;;5.53;;
38783;SDS011;24531;45.502;12.238;2024-03-17T18:08:52;6.07;;;5.47;;
38783;SDS011;24531;45.502;12.238;2024-03-17T18:11:19;7.85;;;5.75;;
38783;SDS011;24531;45.502;12.238;2024-03-17T18:13:46;10.57;;;6.40;;
38783;SDS011;24531;45.502;12.238;2024-03-17T18:16:12;8.85;;;6.40;;
38783;SDS011;24531;45.502;12.238;2024-03-17T18:18:38;7.63;;;6.47;;
38783;SDS011;24531;45.502;12.238;2024-03-17T18:21:08;7.72;;;6.20;;
38783;SDS011;24531;45.502;12.238;2024-03-17T18:23:35;8.90;;;6.82;;
38783;SDS011;24531;45.502;12.238;2024-03-17T18:26:12;10.68;;;7.35;;
38783;SDS011;24531;45.502;12.238;2024-03-17T18:28:38;17.20;;;7.47;;
38783;SDS011;24531;45.502;12.238;2024-03-17T18:31:06;9.70;;;7.18;;
38783;SDS011;24531;45.502;12.238;2024-03-17T18:33:33;11.48;;;7.25;;
38783;SDS011;24531;45.502;12.238;2024-03-17T18:36:00;10.07;;;7.82;;
38783;SDS011;24531;45.502;12.238;2024-03-17T18:38:26;9.85;;;7.70;;
38783;SDS011;24531;45.502;12.238;2024-03-17T18:41:05;9.70;;;6.88;;
38783;SDS011;24531;45.502;12.238;2024-03-17T18:43:32;9.55;;;7.43;;
38783;SDS011;24531;45.502;12.238;2024-03-17T18:46:10;11.43;;;7.43;;
38783;SDS011;24531;45.502;12.238;2024-03-17T18:48:36;9.80;;;6.20;;
38783;SDS011;24531;45.502;12.238;2024-03-17T18:51:02;9.27;;;7.13;;